createdAt,value
2022-11-07T00:02:10.315Z,10.48
2022-11-07T00:04:40.173Z,10.77
2022-11-07T00:07:10.848Z,10.32
2022-11-07T00:09:38.999Z,11.10
2022-11-07T00:12:07.696Z,10.18
2022-11-07T00:14:35.925Z,10.77
2022-11-07T00:17:03.889Z,10.95
2022-11-07T00:19:31.817Z,10.20
2022-11-07T00:22:01.139Z,10.70
2022-11-07T00:24:29.146Z,10.57
2022-11-07T00:26:57.172Z,11.02
2022-11-07T00:29:25.216Z,10.73
2022-11-07T00:31:53.234Z,11.77
2022-11-07T00:34:21.284Z,10.38
2022-11-07T00:36:49.266Z,10.25
2022-11-07T00:39:18.776Z,10.27
2022-11-07T00:41:50.445Z,10.45
2022-11-07T00:44:18.459Z,10.82
2022-11-07T00:46:46.432Z,9.93
2022-11-07T00:49:14.374Z,10.60
2022-11-07T00:51:42.558Z,9.30
2022-11-07T00:54:10.650Z,9.02
2022-11-07T00:56:39.963Z,10.60
2022-11-07T00:59:09.989Z,11.00
2022-11-07T01:01:38.293Z,10.73
2022-11-07T01:04:24.226Z,10.38
2022-11-07T01:06:52.196Z,10.35
2022-11-07T01:09:22.436Z,10.38
2022-11-07T01:11:51.883Z,9.48
2022-11-07T01:14:21.457Z,10.00
2022-11-07T01:16:49.406Z,10.43
2022-11-07T01:19:19.489Z,9.45
2022-11-07T01:21:47.546Z,10.32
2022-11-07T01:24:16.454Z,9.00
2022-11-07T01:26:47.799Z,9.77
2022-11-07T01:29:17.855Z,9.63
2022-11-07T01:31:46.078Z,10.10
2022-11-07T01:34:14.069Z,9.32
2022-11-07T01:36:42.058Z,9.43
2022-11-07T01:39:10.576Z,9.82
2022-11-07T01:41:40.814Z,9.70
2022-11-07T01:44:45.954Z,6.55
2022-11-07T01:47:15.306Z,9.25
2022-11-07T01:49:44.407Z,9.88
2022-11-07T01:52:16.580Z,9.07
2022-11-07T01:54:49.848Z,9.95
2022-11-07T01:57:22.663Z,9.40
2022-11-07T01:59:54.897Z,7.80
2022-11-07T02:02:25.540Z,9.18
2022-11-07T02:04:54.123Z,10.00
2022-11-07T02:07:24.139Z,10.10
2022-11-07T02:09:53.524Z,9.95
2022-11-07T02:12:23.462Z,9.25
2022-11-07T02:14:51.564Z,9.65
2022-11-07T02:17:19.955Z,9.27
2022-11-07T02:19:51.901Z,8.73
2022-11-07T02:22:27.067Z,9.70
2022-11-07T02:24:59.374Z,8.48
2022-11-07T02:27:29.980Z,8.40
2022-11-07T02:30:02.360Z,7.75
2022-11-07T02:32:33.486Z,9.68
2022-11-07T02:35:04.657Z,8.50
2022-11-07T02:37:36.599Z,10.63
2022-11-07T02:40:09.159Z,9.80
2022-11-07T02:42:44.237Z,10.90
2022-11-07T02:45:14.904Z,10.40
2022-11-07T02:47:43.419Z,9.13
2022-11-07T02:50:13.376Z,8.95
2022-11-07T02:52:43.318Z,8.93
2022-11-07T02:55:14.330Z,7.72
2022-11-07T02:57:45.622Z,9.27
2022-11-07T03:00:15.833Z,8.48
2022-11-07T03:02:46.954Z,8.32
2022-11-07T03:05:15.985Z,8.20
2022-11-07T03:07:46.416Z,9.30
2022-11-07T03:10:16.951Z,8.23
2022-11-07T03:12:44.918Z,8.38
2022-11-07T03:15:13.715Z,8.80
2022-11-07T03:17:41.954Z,8.02
2022-11-07T03:20:11.384Z,7.80
2022-11-07T03:22:39.820Z,8.02
2022-11-07T03:25:09.189Z,9.98
2022-11-07T03:27:46.991Z,8.02
2022-11-07T03:30:15.324Z,7.55
2022-11-07T03:32:43.313Z,39.47
2022-11-07T03:35:11.762Z,9.13
2022-11-07T03:37:39.895Z,7.13
2022-11-07T03:40:09.074Z,8.38
2022-11-07T03:42:41.188Z,9.18
2022-11-07T03:45:10.994Z,8.80
2022-11-07T03:47:40.486Z,9.18
2022-11-07T03:50:10.332Z,9.43
2022-11-07T03:52:38.281Z,8.10
2022-11-07T03:55:07.601Z,7.93
2022-11-07T03:57:35.684Z,8.30
2022-11-07T04:00:06.569Z,8.20
2022-11-07T04:02:39.986Z,9.93
2022-11-07T04:05:08.633Z,8.38
2022-11-07T04:07:36.591Z,9.00
2022-11-07T04:10:04.876Z,9.85
2022-11-07T04:12:50.518Z,8.90
2022-11-07T04:15:36.671Z,9.23
2022-11-07T04:18:04.782Z,8.70
2022-11-07T04:20:32.714Z,9.18
2022-11-07T04:23:00.755Z,8.57
2022-11-07T04:25:46.379Z,9.15
2022-11-07T04:28:16.179Z,8.63
2022-11-07T04:30:45.463Z,8.43
2022-11-07T04:33:13.644Z,8.90
2022-11-07T04:35:41.895Z,8.15
2022-11-07T04:38:09.798Z,9.13
2022-11-07T04:40:37.708Z,8.40
2022-11-07T04:43:09.141Z,8.30
2022-11-07T04:45:37.825Z,8.98
2022-11-07T04:48:08.493Z,8.10
2022-11-07T04:50:36.453Z,7.93
2022-11-07T04:53:04.521Z,8.55
2022-11-07T04:55:32.472Z,8.75
2022-11-07T04:58:00.519Z,8.35
2022-11-07T05:00:28.450Z,8.50
2022-11-07T05:02:56.560Z,8.95
2022-11-07T05:05:25.934Z,8.20
2022-11-07T05:07:53.872Z,7.70
2022-11-07T05:10:23.727Z,9.25
2022-11-07T05:12:52.024Z,7.70
2022-11-07T05:15:20.196Z,8.95
2022-11-07T05:17:51.195Z,8.00
2022-11-07T05:20:30.244Z,8.15
2022-11-07T05:23:15.337Z,7.93
2022-11-07T05:25:45.545Z,8.50
2022-11-07T05:28:15.514Z,7.93
2022-11-07T05:30:44.692Z,8.38
2022-11-07T05:33:14.865Z,9.57
2022-11-07T05:35:44.636Z,8.35
2022-11-07T05:38:13.086Z,7.43
2022-11-07T05:40:42.072Z,8.15
2022-11-07T05:43:12.329Z,7.95
2022-11-07T05:45:41.130Z,8.38
2022-11-07T05:48:11.257Z,7.88
2022-11-07T05:50:40.070Z,8.63
2022-11-07T05:53:09.649Z,8.48
2022-11-07T05:55:37.700Z,7.70
2022-11-07T05:58:10.461Z,9.40
2022-11-07T06:00:38.456Z,8.88
2022-11-07T06:03:06.487Z,7.40
2022-11-07T06:05:34.558Z,8.70
2022-11-07T06:08:02.594Z,9.15
2022-11-07T06:10:31.863Z,8.57
2022-11-07T06:13:00.692Z,9.45
2022-11-07T06:15:30.438Z,9.80
2022-11-07T06:18:00.621Z,10.07
2022-11-07T06:20:28.877Z,9.80
2022-11-07T06:22:58.769Z,9.38
2022-11-07T06:25:26.941Z,8.52
2022-11-07T06:28:00.495Z,8.25
2022-11-07T06:30:28.712Z,9.20
2022-11-07T06:32:56.841Z,8.50
2022-11-07T06:35:24.782Z,8.15
2022-11-07T06:37:52.726Z,8.70
2022-11-07T06:40:23.082Z,8.00
2022-11-07T06:42:51.010Z,7.15
2022-11-07T06:45:20.342Z,7.45
2022-11-07T06:47:48.382Z,8.32
2022-11-07T06:50:16.421Z,8.65
2022-11-07T06:52:44.351Z,7.43
2022-11-07T06:55:12.282Z,8.38
2022-11-07T06:57:40.225Z,7.55
2022-11-07T07:00:11.716Z,7.57
2022-11-07T07:05:31.333Z,7.72
2022-11-07T07:07:59.275Z,8.32
2022-11-07T07:10:27.577Z,6.38
2022-11-07T07:12:56.439Z,7.43
2022-11-07T07:15:24.578Z,7.78
2022-11-07T07:17:53.845Z,14.38
2022-11-07T07:20:21.815Z,14.48
2022-11-07T07:22:56.052Z,11.93
2022-11-07T07:25:27.647Z,8.63
2022-11-07T07:27:55.793Z,9.60
2022-11-07T07:30:23.825Z,6.78
2022-11-07T07:32:53.138Z,8.80
2022-11-07T07:35:21.923Z,8.45
2022-11-07T07:37:51.824Z,8.98
2022-11-07T07:40:20.309Z,8.57
2022-11-07T07:42:48.419Z,7.50
2022-11-07T07:45:17.303Z,8.15
2022-11-07T07:47:45.531Z,7.95
2022-11-07T07:50:15.142Z,7.68
2022-11-07T07:52:43.753Z,8.10
2022-11-07T07:55:11.936Z,10.65
2022-11-07T07:57:41.067Z,9.68
2022-11-07T08:00:11.268Z,9.30
2022-11-07T08:02:43.560Z,10.10
2022-11-07T08:05:12.669Z,9.80
2022-11-07T08:07:48.082Z,9.85
2022-11-07T08:10:40.400Z,9.65
2022-11-07T08:13:05.153Z,10.57
2022-11-07T08:15:34.103Z,10.52
2022-11-07T08:18:03.043Z,10.43
2022-11-07T08:20:31.160Z,10.00
2022-11-07T08:23:04.357Z,7.70
2022-11-07T08:25:32.538Z,8.55
2022-11-07T08:28:01.222Z,9.10
2022-11-07T08:30:31.630Z,7.75
2022-11-07T08:33:01.043Z,6.22
2022-11-07T08:35:29.270Z,6.82
2022-11-07T08:37:57.310Z,6.47
2022-11-07T08:40:26.917Z,7.30
2022-11-07T08:42:59.292Z,6.57
2022-11-07T08:45:27.332Z,7.20
2022-11-07T08:47:58.004Z,7.75
2022-11-07T08:50:26.349Z,8.25
2022-11-07T08:52:59.584Z,8.40
2022-11-07T08:55:31.774Z,7.88
2022-11-07T08:58:00.947Z,6.30
2022-11-07T09:00:30.056Z,8.63
2022-11-07T09:03:24.317Z,9.65
2022-11-07T09:05:45.988Z,8.82
2022-11-07T09:08:16.251Z,9.20
2022-11-07T09:10:45.646Z,9.27
2022-11-07T09:13:15.130Z,9.27
2022-11-07T09:15:49.330Z,8.70
2022-11-07T09:18:18.816Z,9.07
2022-11-07T09:20:47.228Z,10.10
2022-11-07T09:23:15.664Z,9.93
2022-11-07T09:25:45.638Z,7.53
2022-11-07T09:28:13.686Z,10.25
2022-11-07T09:30:41.648Z,6.20
2022-11-07T09:33:09.616Z,7.35
2022-11-07T09:35:37.585Z,7.53
2022-11-07T09:38:05.643Z,10.07
2022-11-07T09:40:44.418Z,5.60
2022-11-07T09:43:39.707Z,8.15
2022-11-07T09:46:17.258Z,3.20
2022-11-07T09:48:50.470Z,5.75
2022-11-07T09:51:28.265Z,5.32
2022-11-07T09:54:01.857Z,5.07
2022-11-07T09:56:32.732Z,4.97
2022-11-07T09:59:13.844Z,5.10
2022-11-07T10:01:42.660Z,5.70
2022-11-07T10:04:24.671Z,4.20
2022-11-07T10:06:59.244Z,5.15
2022-11-07T10:09:35.637Z,3.75
2022-11-07T10:12:14.383Z,3.65
2022-11-07T10:14:53.570Z,3.10
2022-11-07T10:17:29.832Z,4.15
2022-11-07T10:20:24.552Z,3.05
2022-11-07T10:23:07.229Z,3.58
2022-11-07T10:25:43.010Z,2.38
2022-11-07T10:28:15.738Z,2.50
2022-11-07T10:30:48.204Z,2.35
2022-11-07T10:33:28.284Z,3.03
2022-11-07T10:36:03.063Z,2.08
2022-11-07T10:38:33.154Z,2.08
2022-11-07T10:41:01.212Z,1.70
2022-11-07T10:43:34.042Z,1.52
2022-11-07T10:46:06.261Z,1.38
2022-11-07T10:48:34.209Z,1.63
2022-11-07T10:51:02.195Z,1.58
2022-11-07T10:53:30.290Z,1.67
2022-11-07T10:55:59.783Z,1.63
2022-11-07T10:58:30.812Z,1.83
2022-11-07T11:01:06.162Z,2.20
2022-11-07T11:03:45.150Z,1.77
2022-11-07T11:06:23.246Z,1.90
2022-11-07T11:08:52.878Z,1.70
2022-11-07T11:11:32.884Z,2.03
2022-11-07T11:14:06.521Z,1.88
2022-11-07T11:16:38.809Z,2.17
2022-11-07T11:19:17.441Z,2.17
2022-11-07T11:21:47.289Z,1.33
2022-11-07T11:24:33.134Z,2.25
2022-11-07T11:27:05.526Z,3.00
2022-11-07T11:29:40.470Z,1.73
2022-11-07T11:32:21.243Z,1.50
2022-11-07T11:35:06.648Z,1.33
2022-11-07T11:37:39.886Z,2.13
2022-11-07T11:40:33.225Z,2.17
2022-11-07T11:43:08.327Z,2.30
2022-11-07T11:45:44.640Z,1.95
2022-11-07T11:48:24.673Z,2.17
2022-11-07T11:50:57.904Z,2.33
2022-11-07T11:53:26.000Z,1.50
2022-11-07T11:56:17.454Z,2.13
2022-11-07T11:58:54.783Z,1.60
2022-11-07T12:01:33.173Z,2.33
2022-11-07T12:04:18.527Z,2.00
2022-11-07T12:06:47.483Z,2.05
2022-11-07T12:09:33.911Z,2.50
2022-11-07T12:12:12.406Z,2.13
2022-11-07T12:14:57.587Z,2.08
2022-11-07T12:17:31.617Z,1.55
2022-11-07T12:20:12.184Z,1.85
2022-11-07T12:22:50.962Z,1.60
2022-11-07T12:25:26.748Z,2.10
2022-11-07T12:28:05.562Z,2.55
2022-11-07T12:30:43.687Z,2.08
2022-11-07T12:33:21.553Z,1.73
2022-11-07T12:35:55.421Z,2.10
2022-11-07T12:38:58.917Z,1.88
2022-11-07T12:41:38.840Z,2.08
2022-11-07T12:44:21.288Z,1.70
2022-11-07T12:46:53.928Z,2.03
2022-11-07T12:49:46.633Z,2.90
2022-11-07T12:52:41.370Z,2.30
2022-11-07T12:55:20.426Z,2.40
2022-11-07T12:57:52.541Z,2.55
2022-11-07T13:00:27.672Z,3.00
2022-11-07T13:03:26.674Z,3.03
2022-11-07T13:06:08.964Z,2.58
2022-11-07T13:08:42.226Z,2.25
2022-11-07T13:11:18.311Z,2.40
2022-11-07T13:14:05.742Z,2.45
2022-11-07T13:16:37.058Z,1.90
2022-11-07T13:19:12.247Z,1.83
2022-11-07T13:21:43.780Z,2.35
2022-11-07T13:24:22.226Z,2.97
2022-11-07T13:26:53.104Z,2.65
2022-11-07T13:29:35.411Z,2.90
2022-11-07T13:32:20.330Z,2.65
2022-11-07T13:34:57.688Z,2.53
2022-11-07T13:37:30.633Z,2.75
2022-11-07T13:40:04.770Z,0.45
2022-11-07T13:42:34.580Z,1.73
2022-11-07T13:45:17.932Z,2.60
2022-11-07T13:47:46.645Z,1.80
2022-11-07T13:50:20.853Z,1.67
2022-11-07T13:53:03.531Z,2.55
2022-11-07T13:55:42.360Z,2.35
2022-11-07T13:58:13.460Z,2.13
2022-11-07T14:00:41.466Z,1.90
2022-11-07T14:03:24.161Z,1.90
2022-11-07T14:05:52.731Z,1.85
2022-11-07T14:08:23.750Z,3.05
2022-11-07T14:10:54.245Z,3.72
2022-11-07T14:13:25.949Z,2.00
2022-11-07T14:15:56.262Z,2.30
2022-11-07T14:18:27.830Z,2.70
2022-11-07T14:20:57.607Z,3.08
2022-11-07T14:23:29.375Z,2.83
2022-11-07T14:26:01.110Z,2.22
2022-11-07T14:28:36.697Z,2.30
2022-11-07T14:31:06.568Z,2.63
2022-11-07T14:33:34.770Z,2.05
2022-11-07T14:36:09.052Z,2.50
2022-11-07T14:38:37.083Z,1.70
2022-11-07T14:41:06.800Z,2.78
2022-11-07T14:43:35.595Z,2.03
2022-11-07T14:46:14.321Z,2.42
2022-11-07T14:48:44.369Z,2.75
2022-11-07T14:51:14.569Z,2.35
2022-11-07T14:53:52.190Z,2.20
2022-11-07T14:56:29.032Z,2.70
2022-11-07T14:58:57.603Z,2.47
2022-11-07T15:01:28.795Z,2.00
2022-11-07T15:03:58.550Z,2.42
2022-11-07T15:06:33.173Z,2.40
2022-11-07T15:09:02.984Z,2.38
2022-11-07T15:11:34.869Z,2.30
2022-11-07T15:14:05.092Z,2.22
2022-11-07T15:16:37.706Z,1.90
2022-11-07T15:19:08.655Z,2.10
2022-11-07T15:21:39.144Z,2.17
2022-11-07T15:24:33.248Z,2.47
2022-11-07T15:27:04.753Z,1.92
2022-11-07T15:29:35.812Z,2.17
2022-11-07T15:32:12.955Z,1.85
2022-11-07T15:35:00.815Z,1.83
2022-11-07T15:37:29.743Z,2.30
2022-11-07T15:39:57.717Z,2.50
2022-11-07T15:42:27.004Z,2.33
2022-11-07T15:44:54.955Z,1.95
2022-11-07T15:47:23.619Z,2.50
2022-11-07T15:49:51.859Z,3.55
2022-11-07T15:52:19.820Z,2.75
2022-11-07T15:54:47.949Z,2.95
2022-11-07T15:57:15.929Z,3.40
2022-11-07T15:59:45.311Z,2.75
2022-11-07T16:02:17.278Z,2.45
2022-11-07T16:04:45.360Z,2.90
2022-11-07T16:07:16.880Z,2.92
2022-11-07T16:09:48.483Z,3.90
2022-11-07T16:12:18.396Z,3.92
2022-11-07T16:14:47.830Z,3.72
2022-11-07T16:17:16.887Z,4.13
2022-11-07T16:19:44.894Z,3.47
2022-11-07T16:22:13.427Z,3.63
2022-11-07T16:24:41.444Z,5.55
2022-11-07T16:27:11.322Z,5.35
2022-11-07T16:29:40.913Z,4.90
2022-11-07T16:32:17.587Z,4.97
2022-11-07T16:34:46.718Z,5.07
2022-11-07T16:37:14.694Z,4.22
2022-11-07T16:39:42.709Z,3.72
2022-11-07T16:42:13.559Z,4.50
2022-11-07T16:44:41.525Z,6.53
2022-11-07T16:47:14.813Z,6.53
2022-11-07T16:49:42.965Z,6.85
2022-11-07T16:52:15.794Z,4.22
2022-11-07T16:54:43.985Z,3.78
2022-11-07T16:57:13.864Z,3.95
2022-11-07T16:59:43.151Z,3.45
2022-11-07T17:02:21.295Z,3.65
2022-11-07T17:04:50.218Z,3.35
2022-11-07T17:07:19.105Z,3.78
2022-11-07T17:09:49.930Z,3.72
2022-11-07T17:12:20.789Z,4.40
2022-11-07T17:14:49.155Z,7.55
2022-11-07T17:17:20.137Z,5.18
2022-11-07T17:19:48.709Z,4.97
2022-11-07T17:22:17.681Z,4.47
2022-11-07T17:24:47.214Z,3.88
2022-11-07T17:27:21.603Z,5.03
2022-11-07T17:29:51.171Z,4.97
2022-11-07T17:32:20.855Z,4.80
2022-11-07T17:35:04.664Z,4.90
2022-11-07T17:37:37.605Z,4.72
2022-11-07T17:40:07.698Z,5.15
2022-11-07T17:42:38.253Z,5.22
2022-11-07T17:45:07.639Z,4.82
2022-11-07T17:47:37.279Z,4.30
2022-11-07T17:50:06.003Z,5.13
2022-11-07T17:52:33.971Z,4.93
2022-11-07T17:55:01.942Z,4.20
2022-11-07T17:57:32.337Z,5.13
2022-11-07T18:00:00.443Z,4.07
2022-11-07T18:02:28.534Z,6.10
2022-11-07T18:04:58.389Z,7.25
2022-11-07T18:07:26.398Z,5.50
2022-11-07T18:09:54.797Z,6.30
2022-11-07T18:12:23.330Z,6.35
2022-11-07T18:14:51.301Z,4.78
2022-11-07T18:17:19.248Z,4.93
2022-11-07T18:19:48.906Z,4.88
2022-11-07T18:22:18.502Z,5.55
2022-11-07T18:24:46.995Z,5.80
2022-11-07T18:27:14.935Z,5.82
2022-11-07T18:29:43.152Z,5.97
2022-11-07T18:32:11.164Z,6.13
2022-11-07T18:34:39.088Z,5.93
2022-11-07T18:37:07.025Z,6.43
2022-11-07T18:39:36.362Z,5.40
2022-11-07T18:42:04.385Z,6.07
2022-11-07T18:44:32.432Z,4.70
2022-11-07T18:47:00.374Z,5.18
2022-11-07T18:49:28.358Z,5.68
2022-11-07T18:51:57.325Z,4.82
2022-11-07T18:54:26.189Z,5.45
2022-11-07T18:56:56.095Z,5.05
2022-11-07T18:59:24.030Z,5.03
2022-11-07T19:01:52.087Z,4.97
2022-11-07T19:04:20.041Z,5.68
2022-11-07T19:06:57.589Z,5.50
2022-11-07T19:09:30.486Z,5.55
2022-11-07T19:12:00.901Z,5.18
2022-11-07T19:14:34.030Z,6.15
2022-11-07T19:17:02.060Z,6.72
2022-11-07T19:19:32.332Z,6.28
2022-11-07T19:22:00.261Z,6.57
2022-11-07T19:24:28.185Z,5.75
2022-11-07T19:26:56.107Z,6.72
2022-11-07T19:29:25.846Z,5.65
2022-11-07T19:31:54.891Z,6.15
2022-11-07T19:34:22.832Z,6.72
2022-11-07T19:36:51.010Z,4.65
2022-11-07T19:39:20.699Z,5.57
2022-11-07T19:41:50.689Z,5.65
2022-11-07T19:44:18.814Z,5.80
2022-11-07T19:46:48.080Z,6.07
2022-11-07T19:49:16.082Z,6.68
2022-11-07T19:51:43.993Z,11.90
2022-11-07T19:54:11.932Z,8.30
2022-11-07T19:56:39.934Z,8.00
2022-11-07T19:59:08.122Z,10.35
2022-11-07T20:01:36.506Z,10.25
2022-11-07T20:04:13.591Z,12.20
2022-11-07T20:06:41.548Z,10.85
2022-11-07T20:09:10.942Z,8.30
2022-11-07T20:11:38.928Z,8.20
2022-11-07T20:14:07.400Z,10.32
2022-11-07T20:16:37.106Z,9.02
2022-11-07T20:19:06.926Z,9.23
2022-11-07T20:21:35.007Z,9.77
2022-11-07T20:24:03.013Z,8.90
2022-11-07T20:26:33.488Z,9.70
2022-11-07T20:29:01.497Z,9.18
2022-11-07T20:31:34.480Z,8.18
2022-11-07T20:34:04.422Z,8.27
2022-11-07T20:36:34.043Z,8.48
2022-11-07T20:39:03.184Z,7.03
2022-11-07T20:41:31.243Z,8.98
2022-11-07T20:44:02.024Z,7.82
2022-11-07T20:46:31.163Z,6.68
2022-11-07T20:48:59.247Z,6.57
2022-11-07T20:51:27.267Z,6.00
2022-11-07T20:53:58.971Z,6.07
2022-11-07T20:56:28.126Z,6.35
2022-11-07T20:58:56.599Z,6.50
2022-11-07T21:01:27.724Z,6.28
2022-11-07T21:03:55.837Z,6.28
2022-11-07T21:06:23.752Z,6.75
2022-11-07T21:08:52.186Z,5.35
2022-11-07T21:11:21.559Z,5.28
2022-11-07T21:13:52.898Z,6.75
2022-11-07T21:16:22.191Z,5.75
2022-11-07T21:18:50.782Z,6.75
2022-11-07T21:21:21.325Z,6.40
2022-11-07T21:23:51.040Z,6.43
2022-11-07T21:26:22.240Z,6.10
2022-11-07T21:28:50.265Z,6.85
2022-11-07T21:31:21.759Z,5.78
2022-11-07T21:33:50.080Z,6.20
2022-11-07T21:36:19.598Z,7.32
2022-11-07T21:38:49.794Z,6.07
2022-11-07T21:41:18.075Z,6.47
2022-11-07T21:43:47.966Z,7.88
2022-11-07T21:46:18.407Z,7.22
2022-11-07T21:48:47.733Z,8.32
2022-11-07T21:51:17.910Z,7.18
2022-11-07T21:53:46.531Z,6.95
2022-11-07T21:56:16.809Z,8.55
2022-11-07T21:58:45.490Z,9.93
2022-11-07T22:01:14.810Z,10.88
2022-11-07T22:06:33.444Z,7.20
2022-11-07T22:09:01.575Z,8.85
2022-11-07T22:11:29.586Z,8.10
2022-11-07T22:13:59.936Z,9.65
2022-11-07T22:16:29.678Z,12.10
2022-11-07T22:18:59.105Z,11.38
2022-11-07T22:21:27.697Z,9.82
2022-11-07T22:23:57.187Z,11.18
2022-11-07T22:26:26.500Z,10.35
2022-11-07T22:28:55.128Z,10.07
2022-11-07T22:31:25.309Z,10.15
2022-11-07T22:33:55.592Z,9.80
2022-11-07T22:36:24.225Z,9.38
2022-11-07T22:38:52.628Z,9.30
2022-11-07T22:41:22.023Z,9.05
2022-11-07T22:43:50.834Z,9.70
2022-11-07T22:46:20.438Z,9.77
2022-11-07T22:48:49.410Z,9.63
2022-11-07T22:51:20.803Z,9.07
2022-11-07T22:53:49.084Z,8.30
2022-11-07T22:56:19.252Z,9.55
2022-11-07T22:58:48.337Z,9.27
2022-11-07T23:01:18.444Z,7.57
2022-11-07T23:03:48.702Z,6.78
2022-11-07T23:06:19.269Z,6.40
2022-11-07T23:08:48.085Z,6.18
2022-11-07T23:14:07.643Z,7.65
2022-11-07T23:16:37.589Z,8.68
2022-11-07T23:19:08.102Z,8.23
2022-11-07T23:21:37.820Z,7.93
2022-11-07T23:24:06.758Z,8.07
2022-11-07T23:26:35.441Z,8.93
2022-11-07T23:29:10.459Z,9.52
2022-11-07T23:31:39.816Z,9.20
2022-11-07T23:34:07.813Z,8.23
2022-11-07T23:36:37.443Z,9.32
2022-11-07T23:39:06.624Z,9.95
2022-11-07T23:41:35.145Z,8.55
2022-11-07T23:44:03.199Z,9.07
2022-11-07T23:46:49.036Z,9.05
2022-11-07T23:49:34.688Z,8.23
2022-11-07T23:52:04.514Z,6.75
2022-11-07T23:54:50.164Z,7.22
2022-11-07T23:57:18.095Z,6.82
